Nearby METAR Reports

KLNK - Lincoln, Nebraska, USA
Distance from station: WNW 8mi, 13km
Updated: Mon, 22-Apr-2024 7:54pm CDT
Clear
Clear
 Wind from N
Wind: N 12 mph, 19 km/h
Temperature: 72°F, 22°C
Dew Point: 39°F, 4°C
Humidity: 31%
Barometer: 29.74 inHg, 1007.1 hPa
Clouds: Clear
Visibility: 10 miles, 16 km
2024/04/23 00:54 KLNK 230054Z 35010KT 10SM CLR 22/04 A2974 RMK AO2 SLP065 T02170044
KAHQ - Wahoo, Nebraska, USA
Distance from station: N 31mi, 49km
Updated: Sat, 13-Apr-2024 6:10pm CDT
NOT Current
Clear
Clear
 Wind from SSW
Wind: SSW 6 mph, 9 km/h
Temperature: 84°F, 29°C
Dew Point: 45°F, 7°C
Humidity: 25%
Barometer: 29.71 inHg, 1006.1 hPa
Clouds: Clear
Visibility: 10 miles, 16 km
2024/04/13 23:10 KAHQ 132310Z AUTO 21005KT 10SM CLR 29/07 A2971 RMK AO2 T02890069
 
KBIE - Beatrice Municip, Nebraska, USA
Distance from station: S 36mi, 57km
Updated: Mon, 22-Apr-2024 8:35pm CDT
Partly Cloudy
Partly Cloudy
 Wind from S
Wind: S 14 mph, 22 km/h
Temperature: 68°F, 20°C
Dew Point: 45°F, 7°C
Humidity: 43%
Barometer: 29.73 inHg, 1006.8 hPa
Clouds: Partly Cloudy
Visibility: 10 miles, 16 km
Cloud details: Partly Cloudy 8000 ft
2024/04/23 01:35 KBIE 230135Z AUTO 19012KT 10SM SCT080 20/07 A2973 RMK AO2 T02000072
KMLE - Omaha/Millard, Nebraska, USA
Distance from station: NE 39mi, 63km
Updated: Mon, 22-Apr-2024 8:15pm CDT
Partly Cloudy
Partly Cloudy
 Wind from NNW
Wind: NNW 6 mph, 9 km/h
Temperature: 72°F, 22°C
Dew Point: 43°F, 6°C
Humidity: 36%
Barometer: 29.73 inHg, 1006.8 hPa
Clouds: Partly Cloudy
Visibility: 10 miles, 16 km
Cloud details: Partly Cloudy 12000 ft
2024/04/23 01:15 KMLE 230115Z AUTO 33005KT 10SM SCT120 22/06 A2973 RMK AO2 T02180055
 
KPMV - Plattsmouth Muni, Nebraska, USA
Distance from station: ENE 39mi, 63km
Updated: Mon, 22-Apr-2024 8:15pm CDT
Partly Cloudy
Partly Cloudy
 Wind from S
Wind: S 16 mph, 26 km/h, Gust: 21 mph, 33 km/h
Temperature: 70°F, 21°C
Dew Point: 43°F, 6°C
Humidity: 38%
Barometer: 29.72 inHg, 1006.4 hPa
Clouds: Partly Cloudy
Visibility: 10 miles, 16 km
Cloud details: Partly Cloudy 9000 ft
Partly Cloudy 12000 ft
2024/04/23 01:15 KPMV 230115Z AUTO 18014G18KT 10SM SCT090 SCT120 21/06 A2972 RMK AO2 T02060063
KAFK - Nebraska City, Nebraska, USA
Distance from station: ESE 43mi, 69km
Updated: Mon, 22-Apr-2024 8:15pm CDT
Clear
Clear
 Wind from SSW
Wind: SSW 15 mph, 24 km/h, Gust: 23 mph, 37 km/h
Temperature: 68°F, 20°C
Dew Point: 43°F, 6°C
Humidity: 40%
Barometer: 29.74 inHg, 1007.1 hPa
Clouds: Clear
Visibility: 10 miles, 16 km
2024/04/23 01:15 KAFK 230115Z AUTO 20013G20KT 10SM CLR 20/06 A2974 RMK AO2 T01970060
 
KOFF - Offutt Afb/Belle, Nebraska, USA
Distance from station: ENE 44mi, 70km
Updated: Mon, 22-Apr-2024 8:00pm CDT
Mostly Cloudy
Mostly Cloudy
 Wind from S
Wind: S 7 mph, 11 km/h
Temperature: 72°F, 22°C
Dew Point: 43°F, 6°C
Humidity: 36%
Barometer: 29.69 inHg, 1005.4 hPa
Clouds: Mostly Cloudy
Visibility: 10 miles, 16 km
Cloud details: Few Clouds 6000 ft
Partly Cloudy 8000 ft
Mostly Cloudy 12000 ft
2024/04/23 01:00 KOFF 230100Z 19006KT 10SM FEW060 SCT080 BKN120 22/06 A2969 RMK AO2A DZE0100 SLP057
KFET - Fremont Muni Arp, Nebraska, USA
Distance from station: N 46mi, 74km
Updated: Mon, 22-Apr-2024 8:15pm CDT
Clear
Clear
 Wind from NW
Wind: NW 9 mph, 15 km/h, Gust: 16 mph, 26 km/h
Temperature: 68°F, 20°C
Dew Point: 37°F, 3°C
Humidity: 33%
Barometer: 29.74 inHg, 1007.1 hPa
Clouds: Clear
Visibility: 10 miles, 16 km
2024/04/23 01:15 KFET 230115Z AUTO 32008G14KT 10SM CLR 20/03 A2974 RMK AO2 T01950029
 
KBTA - Blair Muni, Nebraska, USA
Distance from station: NNE 51mi, 82km
Updated: Mon, 22-Apr-2024 8:35pm CDT
Partly Cloudy
Partly Cloudy
 Wind from NNW
Wind: NNW 8 mph, 13 km/h
Temperature: 68°F, 20°C
Dew Point: 41°F, 5°C
Humidity: 38%
Barometer: 29.73 inHg, 1006.8 hPa
Clouds: Partly Cloudy
Visibility: 10 miles, 16 km
Cloud details: Partly Cloudy 11000 ft
2024/04/23 01:35 KBTA 230135Z AUTO 34007KT 10SM SCT110 20/05 A2973 RMK AO2 T01950050
KJYR - York, Nebraska, USA
Distance from station: W 52mi, 84km
Updated: Mon, 22-Apr-2024 6:30pm CDT
NOT Current
Clear
Clear
 Wind from NW
Wind: NW 15 mph, 24 km/h
Temperature: 70°F, 21°C
Dew Point: 36°F, 2°C
Humidity: 29%
Barometer: 29.76 inHg, 1007.8 hPa
Clouds: Clear
Visibility: 10 miles, 16 km
2024/04/22 23:30 KJYR 222330Z AUTO 32013KT 10SM CLR 21/02 A2976 RMK AO2
 
KOMA - Omaha/Eppley, Nebraska, USA
Distance from station: NE 53mi, 85km
Updated: Mon, 22-Apr-2024 7:52pm CDT
Mostly Cloudy
Mostly Cloudy
 Wind from NNW
Wind: NNW 7 mph, 11 km/h
Temperature: 72°F, 22°C
Dew Point: 43°F, 6°C
Humidity: 36%
Barometer: 29.71 inHg, 1006.1 hPa
Clouds: Mostly Cloudy
Visibility: 10 miles, 16 km
Cloud details: Partly Cloudy 8500 ft
Mostly Cloudy 11000 ft
Mostly Cloudy 23000 ft
2024/04/23 00:52 KOMA 230052Z 33006KT 10SM SCT085 BKN110 BKN230 22/06 A2971 RMK AO2 LTG DSNT SE SLP059 T02170061
KOLU - Columbus Muni, Nebraska, USA
Distance from station: NW 58mi, 93km
Updated: Mon, 22-Apr-2024 7:56pm CDT
Clear
Clear
 Wind from NNW
Wind: NNW 6 mph, 9 km/h
Temperature: 64°F, 18°C
Dew Point: 43°F, 6°C
Humidity: 46%
Barometer: 29.77 inHg, 1008.1 hPa
Clouds: Clear
Visibility: 10 miles, 16 km
2024/04/23 00:56 KOLU 230056Z AUTO 34005KT 10SM CLR 18/06 A2977 RMK AO2 SLP080 T01830056